createdAt,value
2022-11-06T00:02:06.874Z,101122.13
2022-11-06T00:04:34.225Z,101118.25
2022-11-06T00:07:01.766Z,101107.25
2022-11-06T00:09:29.037Z,101100.84
2022-11-06T00:11:56.678Z,101097.28
2022-11-06T00:14:23.976Z,101092.59
2022-11-06T00:16:51.486Z,101110.38
2022-11-06T00:19:18.885Z,101119.88
2022-11-06T00:21:46.345Z,101130.66
2022-11-06T00:24:15.505Z,101132.53
2022-11-06T00:26:43.159Z,101125.31
2022-11-06T00:29:13.930Z,101120.13
2022-11-06T00:31:41.177Z,101135.19
2022-11-06T00:34:09.872Z,101128.03
2022-11-06T00:36:37.108Z,101121.53
2022-11-06T00:39:05.507Z,101116.78
2022-11-06T00:41:32.730Z,101113.97
2022-11-06T00:44:01.141Z,101121.44
2022-11-06T00:46:28.655Z,101118.63
2022-11-06T00:48:56.564Z,101115.09
2022-11-06T00:51:27.862Z,101108.06
2022-11-06T00:53:57.725Z,101109.22
2022-11-06T00:56:25.595Z,101102.22
2022-11-06T00:58:53.178Z,101092.97
2022-11-06T01:01:22.915Z,101084.97
2022-11-06T01:04:01.732Z,101090.00
2022-11-06T01:06:31.573Z,101097.41
2022-11-06T01:08:59.332Z,101089.38
2022-11-06T01:11:52.340Z,101091.16
2022-11-06T01:14:21.287Z,101075.88
2022-11-06T01:16:49.128Z,101060.72
2022-11-06T01:19:17.897Z,101059.44
2022-11-06T01:21:46.636Z,101064.97
2022-11-06T01:24:19.115Z,101064.66
2022-11-06T01:27:11.948Z,101066.09
2022-11-06T01:29:34.290Z,101070.22
2022-11-06T01:32:01.674Z,101069.91
2022-11-06T01:34:29.074Z,101071.66
2022-11-06T01:36:56.315Z,101068.69
2022-11-06T01:39:23.601Z,101069.84
2022-11-06T01:41:52.991Z,101061.25
2022-11-06T01:44:35.495Z,101063.94
2022-11-06T01:47:05.690Z,101060.41
2022-11-06T01:49:33.709Z,101066.72
2022-11-06T01:52:05.277Z,101058.56
2022-11-06T01:54:34.861Z,101055.16
2022-11-06T01:57:03.624Z,101056.91
2022-11-06T01:59:33.107Z,101052.91
2022-11-06T02:02:00.515Z,101038.78
2022-11-06T02:04:32.022Z,101030.63
2022-11-06T02:07:01.152Z,101025.81
2022-11-06T02:09:30.273Z,101019.47
2022-11-06T02:12:22.502Z,101024.38
2022-11-06T02:15:04.261Z,101022.28
2022-11-06T02:17:59.844Z,101011.59
2022-11-06T02:20:41.386Z,100996.97
2022-11-06T02:23:33.267Z,100978.03
2022-11-06T02:26:13.513Z,100970.88
2022-11-06T02:28:48.100Z,100962.53
2022-11-06T02:31:20.508Z,100962.31
2022-11-06T02:33:52.392Z,100973.13
2022-11-06T02:36:25.929Z,100975.75
2022-11-06T02:38:59.278Z,100986.75
2022-11-06T02:41:31.670Z,100978.47
2022-11-06T02:43:59.481Z,100969.34
2022-11-06T02:46:39.833Z,100983.75
2022-11-06T02:49:13.962Z,100983.19
2022-11-06T02:51:46.422Z,100981.06
2022-11-06T02:54:14.567Z,100972.84
2022-11-06T02:56:44.987Z,100979.97
2022-11-06T02:59:15.321Z,100985.88
2022-11-06T03:02:03.657Z,100976.53
2022-11-06T03:04:34.812Z,100976.38
2022-11-06T03:07:09.279Z,100960.81
2022-11-06T03:09:37.059Z,100961.13
2022-11-06T03:12:25.535Z,100961.84
2022-11-06T03:15:15.142Z,100956.00
2022-11-06T03:17:50.921Z,100934.75
2022-11-06T03:20:21.968Z,100920.53
2022-11-06T03:23:02.325Z,100926.88
2022-11-06T03:25:36.752Z,100938.00
2022-11-06T03:28:11.044Z,100937.38
2022-11-06T03:30:48.523Z,100929.94
2022-11-06T03:33:19.771Z,100925.78
2022-11-06T03:35:58.215Z,100924.28
2022-11-06T03:38:32.318Z,100913.88
2022-11-06T03:41:11.384Z,100916.19
2022-11-06T03:43:42.603Z,100921.16
2022-11-06T03:46:13.916Z,100924.84
2022-11-06T03:48:44.685Z,100931.06
2022-11-06T03:51:22.022Z,100937.09
2022-11-06T03:54:15.494Z,100922.84
2022-11-06T03:56:55.399Z,100903.06
2022-11-06T03:59:25.348Z,100902.50
2022-11-06T04:01:54.169Z,100896.69
2022-11-06T04:04:35.793Z,100882.13
2022-11-06T04:07:09.711Z,100887.97
2022-11-06T04:09:59.744Z,100897.06
2022-11-06T04:12:47.094Z,100887.47
2022-11-06T04:15:16.959Z,100884.97
2022-11-06T04:17:44.318Z,100869.56
2022-11-06T04:20:36.285Z,100871.41
2022-11-06T04:23:16.424Z,100879.09
2022-11-06T04:26:39.138Z,100889.50
2022-11-06T04:29:32.754Z,100873.78
2022-11-06T04:32:28.801Z,100878.34
2022-11-06T04:35:14.231Z,100881.22
2022-11-06T04:37:48.315Z,100883.47
2022-11-06T04:40:25.308Z,100879.22
2022-11-06T04:42:52.577Z,100887.13
2022-11-06T04:45:38.834Z,100874.13
2022-11-06T04:48:08.241Z,100880.28
2022-11-06T04:50:47.682Z,100880.19
2022-11-06T04:53:17.132Z,100876.00
2022-11-06T04:55:53.526Z,100860.00
2022-11-06T04:58:20.906Z,100867.44
2022-11-06T05:00:50.199Z,100864.03
2022-11-06T05:03:18.164Z,100855.53
2022-11-06T05:05:45.602Z,100858.31
2022-11-06T05:08:16.195Z,100849.03
2022-11-06T05:10:44.345Z,100857.72
2022-11-06T05:13:11.970Z,100846.56
2022-11-06T05:15:39.509Z,100858.09
2022-11-06T05:18:07.272Z,100848.78
2022-11-06T05:20:34.813Z,100856.28
2022-11-06T05:23:02.086Z,100846.34
2022-11-06T05:25:32.341Z,100835.00
2022-11-06T05:28:00.535Z,100840.25
2022-11-06T05:30:28.135Z,100834.53
2022-11-06T05:32:55.483Z,100815.19
2022-11-06T05:35:22.745Z,100812.38
2022-11-06T05:37:49.975Z,100817.25
2022-11-06T05:40:17.547Z,100810.59
2022-11-06T05:42:44.917Z,100812.47
2022-11-06T05:45:12.511Z,100802.31
2022-11-06T05:47:41.727Z,100799.56
2022-11-06T05:50:09.813Z,100803.88
2022-11-06T05:52:37.906Z,100812.56
2022-11-06T05:55:11.609Z,100824.00
2022-11-06T05:57:40.685Z,100817.91
2022-11-06T06:00:09.085Z,100805.44
2022-11-06T06:02:40.001Z,100812.13
2022-11-06T06:05:08.073Z,100813.22
2022-11-06T06:07:35.655Z,100810.19
2022-11-06T06:10:03.291Z,100807.38
2022-11-06T06:12:30.542Z,100802.25
2022-11-06T06:14:57.884Z,100800.38
2022-11-06T06:17:25.286Z,100799.00
2022-11-06T06:19:52.562Z,100784.88
2022-11-06T06:22:19.792Z,100786.78
2022-11-06T06:24:47.249Z,100788.72
2022-11-06T06:27:14.608Z,100787.56
2022-11-06T06:29:41.863Z,100775.81
2022-11-06T06:32:09.230Z,100766.47
2022-11-06T06:34:36.471Z,100758.25
2022-11-06T06:37:03.704Z,100749.25
2022-11-06T06:39:31.186Z,100756.81
2022-11-06T06:41:58.827Z,100750.00
2022-11-06T06:44:26.209Z,100741.53
2022-11-06T06:46:53.558Z,100740.16
2022-11-06T06:49:20.796Z,100743.28
2022-11-06T06:51:49.036Z,100740.81
2022-11-06T06:54:16.511Z,100732.13
2022-11-06T06:56:43.871Z,100728.00
2022-11-06T06:59:11.263Z,100716.91
2022-11-06T07:01:38.819Z,100715.69
2022-11-06T07:04:06.535Z,100719.13
2022-11-06T07:06:34.901Z,100714.84
2022-11-06T07:09:02.237Z,100715.31
2022-11-06T07:11:29.665Z,100725.19
2022-11-06T07:13:58.050Z,100729.19
2022-11-06T07:16:27.438Z,100728.53
2022-11-06T07:18:54.762Z,100719.31
2022-11-06T07:21:22.235Z,100712.66
2022-11-06T07:23:49.511Z,100714.41
2022-11-06T07:26:17.049Z,100720.78
2022-11-06T07:28:44.270Z,100725.06
2022-11-06T07:31:14.836Z,100717.06
2022-11-06T07:33:42.233Z,100703.91
2022-11-06T07:36:11.877Z,100700.41
2022-11-06T07:38:40.964Z,100699.50
2022-11-06T07:41:13.433Z,100690.06
2022-11-06T07:43:41.572Z,100692.81
2022-11-06T07:46:11.354Z,100697.81
2022-11-06T07:48:39.587Z,100703.28
2022-11-06T07:51:09.284Z,100706.44
2022-11-06T07:53:37.110Z,100708.66
2022-11-06T07:56:04.685Z,100708.00
2022-11-06T07:58:33.319Z,100704.09
2022-11-06T08:01:00.985Z,100707.69
2022-11-06T08:03:30.283Z,100691.31
2022-11-06T08:05:59.361Z,100696.28
2022-11-06T08:08:27.856Z,100700.75
2022-11-06T08:10:55.154Z,100694.75
2022-11-06T08:13:22.335Z,100700.06
2022-11-06T08:15:49.910Z,100689.22
2022-11-06T08:18:18.553Z,100677.41
2022-11-06T08:20:45.955Z,100678.41
2022-11-06T08:23:13.664Z,100675.13
2022-11-06T08:25:41.015Z,100671.47
2022-11-06T08:28:09.464Z,100665.09
2022-11-06T08:30:36.918Z,100663.59
2022-11-06T08:33:07.524Z,100661.88
2022-11-06T08:35:38.041Z,100658.47
2022-11-06T08:38:05.294Z,100659.75
2022-11-06T08:40:32.933Z,100660.38
2022-11-06T08:43:01.819Z,100673.41
2022-11-06T08:45:29.372Z,100661.88
2022-11-06T08:48:00.992Z,100658.19
2022-11-06T08:50:28.660Z,100664.56
2022-11-06T08:53:01.288Z,100676.00
2022-11-06T08:55:28.963Z,100675.50
2022-11-06T08:57:56.341Z,100669.00
2022-11-06T09:00:23.915Z,100667.22
2022-11-06T09:02:51.303Z,100666.97
2022-11-06T09:05:18.555Z,100652.84
2022-11-06T09:07:46.276Z,100644.91
2022-11-06T09:10:14.176Z,100641.69
2022-11-06T09:12:41.555Z,100669.84
2022-11-06T09:15:10.236Z,100658.75
2022-11-06T09:17:47.806Z,100655.03
2022-11-06T09:20:16.376Z,100641.91
2022-11-06T09:22:43.599Z,100623.59
2022-11-06T09:25:11.346Z,100603.28
2022-11-06T09:27:43.300Z,100583.81
2022-11-06T09:30:12.469Z,100590.97
2022-11-06T09:32:45.687Z,100591.91
2022-11-06T09:35:13.313Z,100595.53
2022-11-06T09:37:40.854Z,100594.81
2022-11-06T09:40:32.953Z,100591.16
2022-11-06T09:43:27.275Z,100587.41
2022-11-06T09:46:18.077Z,100594.97
2022-11-06T09:48:49.044Z,100593.53
2022-11-06T09:51:34.092Z,100582.38
2022-11-06T09:54:22.006Z,100599.06
2022-11-06T09:56:56.314Z,100587.69
2022-11-06T09:59:24.651Z,100592.41
2022-11-06T10:01:55.354Z,100570.84
2022-11-06T10:05:07.031Z,100564.88
2022-11-06T10:07:36.885Z,100560.66
2022-11-06T10:10:07.638Z,100570.16
2022-11-06T10:12:40.816Z,100571.94
2022-11-06T10:15:22.637Z,100570.50
2022-11-06T10:18:01.647Z,100558.66
2022-11-06T10:20:39.318Z,100557.03
2022-11-06T10:23:18.796Z,100558.91
2022-11-06T10:25:51.931Z,100568.94
2022-11-06T10:28:47.140Z,100556.75
2022-11-06T10:31:36.727Z,100560.84
2022-11-06T10:34:09.908Z,100561.94
2022-11-06T10:36:48.733Z,100565.53
2022-11-06T10:39:27.190Z,100569.88
2022-11-06T10:42:05.207Z,100581.75
2022-11-06T10:44:37.780Z,100571.03
2022-11-06T10:47:20.176Z,100554.22
2022-11-06T10:50:08.422Z,100541.03
2022-11-06T10:52:55.299Z,100540.69
2022-11-06T10:55:31.588Z,100538.75
2022-11-06T10:58:22.749Z,100538.75
2022-11-06T11:00:53.115Z,100538.44
2022-11-06T11:03:26.697Z,100532.28
2022-11-06T11:05:55.640Z,100533.25
2022-11-06T11:08:47.026Z,100517.50
2022-11-06T11:11:14.255Z,100516.22
2022-11-06T11:13:46.273Z,100527.06
2022-11-06T11:16:28.617Z,100521.06
2022-11-06T11:19:15.321Z,100524.81
2022-11-06T11:22:00.200Z,100508.09
2022-11-06T11:24:27.773Z,100512.16
2022-11-06T11:27:03.092Z,100500.81
2022-11-06T11:29:45.277Z,100496.13
2022-11-06T11:32:15.097Z,100484.88
2022-11-06T11:34:56.608Z,100460.06
2022-11-06T11:37:28.191Z,100451.63
2022-11-06T11:39:56.012Z,100451.16
2022-11-06T11:42:26.246Z,100453.44
2022-11-06T11:45:13.922Z,100444.16
2022-11-06T11:47:46.912Z,100438.34
2022-11-06T11:50:18.572Z,100438.66
2022-11-06T11:52:47.381Z,100433.63
2022-11-06T11:55:20.300Z,100428.44
2022-11-06T11:57:50.129Z,100420.81
2022-11-06T12:00:19.800Z,100425.69
2022-11-06T12:02:53.478Z,100428.78
2022-11-06T12:05:28.626Z,100429.09
2022-11-06T12:07:57.565Z,100428.59
2022-11-06T12:10:35.116Z,100419.66
2022-11-06T12:13:07.617Z,100413.81
2022-11-06T12:15:40.894Z,100406.53
2022-11-06T12:18:21.737Z,100400.03
2022-11-06T12:21:21.270Z,100393.88
2022-11-06T12:23:54.309Z,100400.34
2022-11-06T12:26:27.570Z,100388.03
2022-11-06T12:29:05.876Z,100377.41
2022-11-06T12:31:43.179Z,100372.59
2022-11-06T12:34:25.406Z,100366.06
2022-11-06T12:37:26.035Z,100369.84
2022-11-06T12:40:03.532Z,100359.28
2022-11-06T12:42:32.330Z,100342.31
2022-11-06T12:44:59.884Z,100340.31
2022-11-06T12:47:46.323Z,100345.50
2022-11-06T12:50:27.095Z,100343.41
2022-11-06T12:53:18.727Z,100333.97
2022-11-06T12:56:01.617Z,100337.41
2022-11-06T12:58:37.776Z,100335.09
2022-11-06T13:01:27.761Z,100338.88
2022-11-06T13:04:23.180Z,100332.69
2022-11-06T13:07:23.562Z,100329.25
2022-11-06T13:10:23.285Z,100317.75
2022-11-06T13:12:56.614Z,100313.03
2022-11-06T13:15:45.288Z,100319.13
2022-11-06T13:18:22.835Z,100312.50
2022-11-06T13:21:21.900Z,100315.16
2022-11-06T13:23:51.331Z,100312.06
2022-11-06T13:26:27.851Z,100303.78
2022-11-06T13:29:02.521Z,100300.66
2022-11-06T13:31:40.199Z,100299.03
2022-11-06T13:34:24.929Z,100297.16
2022-11-06T13:36:52.962Z,100289.88
2022-11-06T13:39:29.967Z,100302.19
2022-11-06T13:41:57.954Z,100305.59
2022-11-06T13:44:25.597Z,100296.44
2022-11-06T13:47:04.894Z,100314.44
2022-11-06T13:50:01.257Z,100294.63
2022-11-06T13:52:39.606Z,100292.69
2022-11-06T13:55:57.178Z,100291.69
2022-11-06T13:58:31.958Z,100277.72
2022-11-06T14:01:04.915Z,100274.72
2022-11-06T14:04:06.806Z,100295.84
2022-11-06T14:06:35.485Z,100270.47
2022-11-06T14:09:21.315Z,100286.50
2022-11-06T14:11:54.814Z,100288.94
2022-11-06T14:14:21.976Z,100300.88
2022-11-06T14:17:17.040Z,100294.50
2022-11-06T14:19:51.088Z,100296.53
2022-11-06T14:22:30.596Z,100298.28
2022-11-06T14:25:01.582Z,100303.72
2022-11-06T14:27:29.648Z,100286.88
2022-11-06T14:30:14.980Z,100289.09
2022-11-06T14:32:47.607Z,100296.34
2022-11-06T14:35:31.057Z,100300.66
2022-11-06T14:38:13.467Z,100298.56
2022-11-06T14:40:40.979Z,100300.66
2022-11-06T14:43:24.577Z,100291.25
2022-11-06T14:46:20.626Z,100295.19
2022-11-06T14:48:52.127Z,100309.44
2022-11-06T14:51:26.378Z,100294.63
2022-11-06T14:53:59.383Z,100290.84
2022-11-06T14:56:39.734Z,100295.00
2022-11-06T14:59:07.606Z,100306.31
2022-11-06T15:01:37.374Z,100303.03
2022-11-06T15:04:15.772Z,100308.75
2022-11-06T15:06:46.027Z,100312.25
2022-11-06T15:09:14.267Z,100312.06
2022-11-06T15:11:47.931Z,100315.16
2022-11-06T15:14:15.221Z,100306.88
2022-11-06T15:16:49.775Z,100306.25
2022-11-06T15:19:20.582Z,100295.19
2022-11-06T15:22:03.475Z,100313.06
2022-11-06T15:24:53.867Z,100307.22
2022-11-06T15:27:31.150Z,100309.03
2022-11-06T15:30:00.854Z,100312.94
2022-11-06T15:32:30.666Z,100311.84
2022-11-06T15:35:18.382Z,100317.50
2022-11-06T15:37:56.074Z,100322.63
2022-11-06T15:40:31.655Z,100337.25
2022-11-06T15:43:02.385Z,100324.81
2022-11-06T15:45:30.073Z,100321.34
2022-11-06T15:48:00.064Z,100330.69
2022-11-06T15:50:28.538Z,100331.25
2022-11-06T15:53:16.092Z,100335.47
2022-11-06T15:55:50.916Z,100339.09
2022-11-06T15:58:18.122Z,100346.44
2022-11-06T16:00:46.002Z,100347.66
2022-11-06T16:03:16.031Z,100340.91
2022-11-06T16:05:43.575Z,100334.22
2022-11-06T16:08:13.022Z,100341.38
2022-11-06T16:10:43.698Z,100348.25
2022-11-06T16:13:13.040Z,100330.31
2022-11-06T16:15:43.837Z,100335.66
2022-11-06T16:18:26.103Z,100337.16
2022-11-06T16:20:57.411Z,100333.09
2022-11-06T16:23:34.834Z,100341.03
2022-11-06T16:26:11.735Z,100337.06
2022-11-06T16:28:43.795Z,100339.00
2022-11-06T16:31:15.942Z,100339.38
2022-11-06T16:33:59.960Z,100342.03
2022-11-06T16:36:29.672Z,100322.25
2022-11-06T16:39:16.786Z,100325.22
2022-11-06T16:42:17.498Z,100327.03
2022-11-06T16:44:46.432Z,100334.50
2022-11-06T16:47:22.380Z,100324.94
2022-11-06T16:49:57.356Z,100340.72
2022-11-06T16:52:34.885Z,100341.44
2022-11-06T16:55:03.221Z,100339.31
2022-11-06T16:57:45.644Z,100347.00
2022-11-06T17:00:31.127Z,100347.91
2022-11-06T17:03:07.451Z,100359.38
2022-11-06T17:05:36.958Z,100348.66
2022-11-06T17:08:29.918Z,100346.91
2022-11-06T17:10:58.447Z,100353.88
2022-11-06T17:13:32.052Z,100357.09
2022-11-06T17:16:01.657Z,100349.41
2022-11-06T17:18:31.073Z,100357.63
2022-11-06T17:21:00.932Z,100351.56
2022-11-06T17:23:29.289Z,100351.84
2022-11-06T17:25:59.955Z,100346.91
2022-11-06T17:28:28.242Z,100358.03
2022-11-06T17:30:55.896Z,100355.25
2022-11-06T17:33:23.189Z,100356.75
2022-11-06T17:35:50.631Z,100363.34
2022-11-06T17:38:18.218Z,100371.19
2022-11-06T17:40:45.830Z,100377.38
2022-11-06T17:43:13.869Z,100379.03
2022-11-06T17:45:43.194Z,100375.06
2022-11-06T17:48:10.482Z,100369.09
2022-11-06T17:50:56.347Z,100382.47
2022-11-06T17:53:23.826Z,100378.47
2022-11-06T17:55:51.145Z,100373.41
2022-11-06T17:58:18.557Z,100382.63
2022-11-06T18:00:46.492Z,100395.44
2022-11-06T18:03:20.809Z,100383.09
2022-11-06T18:05:48.475Z,100385.47
2022-11-06T18:08:16.667Z,100403.84
2022-11-06T18:10:53.017Z,100392.28
2022-11-06T18:13:20.253Z,100398.69
2022-11-06T18:15:47.636Z,100404.19
2022-11-06T18:18:15.479Z,100408.03
2022-11-06T18:20:47.391Z,100415.56
2022-11-06T18:23:15.879Z,100408.75
2022-11-06T18:25:43.469Z,100407.69
2022-11-06T18:28:10.783Z,100415.63
2022-11-06T18:30:38.789Z,100417.81
2022-11-06T18:33:06.119Z,100415.00
2022-11-06T18:35:33.335Z,100426.75
2022-11-06T18:38:01.372Z,100427.84
2022-11-06T18:40:28.641Z,100422.63
2022-11-06T18:42:55.910Z,100417.56
2022-11-06T18:45:23.183Z,100428.88
2022-11-06T18:47:50.971Z,100428.06
2022-11-06T18:50:18.340Z,100427.63
2022-11-06T18:52:57.497Z,100426.06
2022-11-06T18:55:25.477Z,100436.00
2022-11-06T18:57:53.453Z,100437.72
2022-11-06T19:00:21.296Z,100443.13
2022-11-06T19:02:51.458Z,100434.94
2022-11-06T19:05:19.164Z,100434.25
2022-11-06T19:07:51.157Z,100446.81
2022-11-06T19:10:19.256Z,100452.00
2022-11-06T19:12:46.449Z,100458.19
2022-11-06T19:15:13.717Z,100454.53
2022-11-06T19:17:40.884Z,100466.44
2022-11-06T19:20:10.828Z,100466.63
2022-11-06T19:22:41.113Z,100472.78
2022-11-06T19:25:08.799Z,100467.53
2022-11-06T19:27:36.191Z,100478.34
2022-11-06T19:30:03.635Z,100475.03
2022-11-06T19:32:30.851Z,100478.66
2022-11-06T19:34:58.166Z,100487.56
2022-11-06T19:37:25.423Z,100479.63
2022-11-06T19:39:53.389Z,100488.50
2022-11-06T19:42:20.741Z,100491.94
2022-11-06T19:44:48.204Z,100490.91
2022-11-06T19:47:15.562Z,100490.56
2022-11-06T19:49:43.001Z,100491.03
2022-11-06T19:52:42.973Z,100490.88
2022-11-06T19:55:26.142Z,100498.34
2022-11-06T19:57:57.431Z,100499.47
2022-11-06T20:00:24.598Z,100499.06
2022-11-06T20:02:51.878Z,100499.59
2022-11-06T20:05:19.350Z,100502.75
2022-11-06T20:07:46.623Z,100501.06
2022-11-06T20:10:13.925Z,100498.53
2022-11-06T20:12:41.164Z,100501.91
2022-11-06T20:15:08.827Z,100509.63
2022-11-06T20:17:36.238Z,100510.91
2022-11-06T20:20:03.677Z,100515.31
2022-11-06T20:22:30.928Z,100516.34
2022-11-06T20:24:58.206Z,100522.78
2022-11-06T20:27:25.469Z,100524.69
2022-11-06T20:29:52.828Z,100530.03
2022-11-06T20:32:20.140Z,100522.66
2022-11-06T20:34:47.773Z,100528.75
2022-11-06T20:37:15.011Z,100526.94
2022-11-06T20:39:42.445Z,100535.06
2022-11-06T20:42:09.657Z,100530.81
2022-11-06T20:44:37.258Z,100537.94
2022-11-06T20:47:04.621Z,100530.88
2022-11-06T20:49:31.869Z,100540.91
2022-11-06T20:52:15.468Z,100539.09
2022-11-06T20:54:47.177Z,100546.06
2022-11-06T20:57:17.621Z,100546.84
2022-11-06T20:59:44.996Z,100547.06
2022-11-06T21:02:12.371Z,100546.72
2022-11-06T21:04:40.000Z,100551.72
2022-11-06T21:07:07.289Z,100540.59
2022-11-06T21:09:34.479Z,100545.91
2022-11-06T21:12:01.756Z,100543.59
2022-11-06T21:14:29.236Z,100552.50
2022-11-06T21:16:57.252Z,100551.78
2022-11-06T21:19:24.693Z,100562.50
2022-11-06T21:21:52.323Z,100567.22
2022-11-06T21:24:19.728Z,100577.91
2022-11-06T21:26:47.006Z,100564.31
2022-11-06T21:29:14.457Z,100569.84
2022-11-06T21:31:48.552Z,100577.44
2022-11-06T21:34:17.484Z,100583.50
2022-11-06T21:36:48.168Z,100580.88
2022-11-06T21:39:18.453Z,100586.47
2022-11-06T21:41:46.667Z,100582.41
2022-11-06T21:44:16.404Z,100587.13
2022-11-06T21:46:45.709Z,100600.81
2022-11-06T21:49:13.885Z,100603.72
2022-11-06T21:51:41.674Z,100607.19
2022-11-06T21:54:30.340Z,100606.84
2022-11-06T21:56:57.672Z,100605.06
2022-11-06T21:59:27.007Z,100608.94
2022-11-06T22:01:54.660Z,100601.72
2022-11-06T22:04:22.452Z,100599.66
2022-11-06T22:06:49.643Z,100609.91
2022-11-06T22:09:21.941Z,100604.00
2022-11-06T22:11:51.919Z,100618.06
2022-11-06T22:14:19.317Z,100620.97
2022-11-06T22:16:47.816Z,100620.97
2022-11-06T22:19:16.155Z,100625.53
2022-11-06T22:21:43.694Z,100612.66
2022-11-06T22:24:12.853Z,100616.50
2022-11-06T22:26:40.647Z,100625.81
2022-11-06T22:29:10.924Z,100626.03
2022-11-06T22:31:38.549Z,100632.63
2022-11-06T22:34:05.784Z,100635.13
2022-11-06T22:36:33.066Z,100638.16
2022-11-06T22:39:04.705Z,100636.47
2022-11-06T22:41:32.204Z,100646.03
2022-11-06T22:43:59.708Z,100636.47
2022-11-06T22:46:28.979Z,100646.69
2022-11-06T22:48:57.131Z,100646.44
2022-11-06T22:51:29.222Z,100646.53
2022-11-06T22:53:56.631Z,100631.69
2022-11-06T22:56:25.032Z,100632.81
2022-11-06T22:58:56.228Z,100638.16
2022-11-06T23:01:25.449Z,100643.91
2022-11-06T23:03:56.930Z,100638.84
2022-11-06T23:06:25.659Z,100636.81
2022-11-06T23:08:53.464Z,100633.50
2022-11-06T23:11:21.809Z,100635.72
2022-11-06T23:13:49.034Z,100631.91
2022-11-06T23:16:50.357Z,100636.53
2022-11-06T23:19:19.914Z,100640.50
2022-11-06T23:21:47.243Z,100636.69
2022-11-06T23:24:14.706Z,100639.25
2022-11-06T23:26:43.683Z,100633.03
2022-11-06T23:29:11.274Z,100640.06
2022-11-06T23:31:38.523Z,100641.66
2022-11-06T23:34:05.904Z,100643.13
2022-11-06T23:36:33.232Z,100640.72
2022-11-06T23:39:00.533Z,100646.88
2022-11-06T23:41:43.483Z,100647.00
2022-11-06T23:44:30.869Z,100654.75
2022-11-06T23:46:58.279Z,100645.06
2022-11-06T23:49:25.504Z,100639.03
2022-11-06T23:51:53.035Z,100635.25
2022-11-06T23:54:20.695Z,100639.09
2022-11-06T23:56:47.889Z,100645.81
2022-11-06T23:59:15.222Z,100642.84
